createdAt,value
2022-10-25T00:02:21.307Z,13.10
2022-10-25T00:04:50.151Z,13.00
2022-10-25T00:07:18.799Z,13.00
2022-10-25T00:09:47.356Z,13.00
2022-10-25T00:12:15.951Z,13.00
2022-10-25T00:14:44.634Z,13.10
2022-10-25T00:17:14.542Z,13.00
2022-10-25T00:19:43.226Z,13.00
2022-10-25T00:22:11.817Z,13.00
2022-10-25T00:24:40.474Z,12.90
2022-10-25T00:27:09.036Z,12.90
2022-10-25T00:29:37.621Z,12.90
2022-10-25T00:32:06.262Z,12.90
2022-10-25T00:34:36.161Z,12.90
2022-10-25T00:37:04.785Z,13.00
2022-10-25T00:39:33.471Z,12.90
2022-10-25T00:42:02.665Z,12.90
2022-10-25T00:44:51.079Z,12.90
2022-10-25T00:47:27.964Z,12.90
2022-10-25T00:49:59.326Z,12.80
2022-10-25T00:52:28.435Z,12.70
2022-10-25T00:54:56.986Z,12.70
2022-10-25T00:57:28.787Z,12.60
2022-10-25T00:59:57.708Z,12.60
2022-10-25T01:02:26.593Z,12.60
2022-10-25T01:04:55.300Z,12.50
2022-10-25T01:07:25.526Z,12.60
2022-10-25T01:09:54.910Z,12.60
2022-10-25T01:12:23.590Z,12.60
2022-10-25T01:14:52.602Z,12.60
2022-10-25T01:17:25.663Z,12.60
2022-10-25T01:20:05.847Z,12.60
2022-10-25T01:22:38.831Z,12.70
2022-10-25T01:25:21.632Z,12.60
2022-10-25T01:30:25.925Z,12.70
2022-10-25T01:33:03.949Z,12.70
2022-10-25T01:35:33.584Z,12.60
2022-10-25T01:38:19.397Z,12.60
2022-10-25T01:40:50.850Z,12.50
2022-10-25T01:43:24.449Z,12.50
2022-10-25T01:45:55.508Z,12.50
2022-10-25T01:48:27.870Z,12.40
2022-10-25T01:50:56.570Z,12.50
2022-10-25T01:53:25.199Z,12.50
2022-10-25T01:55:55.850Z,12.60
2022-10-25T01:58:32.241Z,12.50
2022-10-25T02:01:06.596Z,12.50
2022-10-25T02:03:42.963Z,12.60
2022-10-25T02:06:17.418Z,12.50
2022-10-25T02:08:48.180Z,12.50
2022-10-25T02:11:22.842Z,12.50
2022-10-25T02:13:58.532Z,12.50
2022-10-25T02:16:28.552Z,12.50
2022-10-25T02:19:00.803Z,12.60
2022-10-25T02:21:30.497Z,12.60
2022-10-25T02:23:59.653Z,12.60
2022-10-25T02:26:29.358Z,12.60
2022-10-25T02:28:58.326Z,12.70
2022-10-25T02:31:27.517Z,12.60
2022-10-25T02:33:56.056Z,12.60
2022-10-25T02:36:26.196Z,12.60
2022-10-25T02:38:55.721Z,12.70
2022-10-25T02:41:24.771Z,12.70
2022-10-25T02:43:53.445Z,12.70
2022-10-25T02:46:23.244Z,12.80
2022-10-25T02:48:52.281Z,12.70
2022-10-25T02:51:21.061Z,12.70
2022-10-25T02:53:50.925Z,12.80
2022-10-25T02:56:20.634Z,12.60
2022-10-25T02:58:50.257Z,12.70
2022-10-25T03:01:20.045Z,12.80
2022-10-25T03:03:48.908Z,12.70
2022-10-25T03:06:17.760Z,12.70
2022-10-25T03:08:47.379Z,12.70
2022-10-25T03:11:17.546Z,12.80
2022-10-25T03:13:46.205Z,12.80
2022-10-25T03:16:14.800Z,12.80
2022-10-25T03:18:43.622Z,12.80
2022-10-25T03:21:12.127Z,12.90
2022-10-25T03:23:40.772Z,12.90
2022-10-25T03:26:09.622Z,12.80
2022-10-25T03:28:39.560Z,12.90
2022-10-25T03:31:11.902Z,12.90
2022-10-25T03:33:40.532Z,12.80
2022-10-25T03:36:09.270Z,12.80
2022-10-25T03:38:38.092Z,12.90
2022-10-25T03:41:06.902Z,12.80
2022-10-25T03:43:36.560Z,12.80
2022-10-25T03:46:06.612Z,12.70
2022-10-25T03:48:35.308Z,12.70
2022-10-25T03:51:03.959Z,12.70
2022-10-25T03:53:33.814Z,12.60
2022-10-25T03:56:02.396Z,12.70
2022-10-25T03:58:31.130Z,12.70
2022-10-25T04:01:01.010Z,12.70
2022-10-25T04:03:31.131Z,12.70
2022-10-25T04:05:59.874Z,12.80
2022-10-25T04:08:28.478Z,12.80
2022-10-25T04:10:57.020Z,12.80
2022-10-25T04:13:25.667Z,12.80
2022-10-25T04:15:54.456Z,12.80
2022-10-25T04:18:23.026Z,12.80
2022-10-25T04:20:53.032Z,12.80
2022-10-25T04:23:21.570Z,12.80
2022-10-25T04:25:50.648Z,12.80
2022-10-25T04:28:19.294Z,12.80
2022-10-25T04:30:48.040Z,12.90
2022-10-25T04:33:16.807Z,12.80
2022-10-25T04:35:45.473Z,12.80
2022-10-25T04:38:15.424Z,12.70
2022-10-25T04:40:44.199Z,12.70
2022-10-25T04:43:12.687Z,12.60
2022-10-25T04:45:41.287Z,12.70
2022-10-25T04:48:09.975Z,12.60
2022-10-25T04:50:38.926Z,12.60
2022-10-25T04:53:07.724Z,12.40
2022-10-25T04:55:37.606Z,12.40
2022-10-25T04:58:06.192Z,12.40
2022-10-25T05:00:34.947Z,12.30
2022-10-25T05:03:03.576Z,12.20
2022-10-25T05:05:32.175Z,12.20
2022-10-25T05:08:03.599Z,12.10
2022-10-25T05:10:32.290Z,12.20
2022-10-25T05:13:02.734Z,12.20
2022-10-25T05:15:31.460Z,12.40
2022-10-25T05:18:00.360Z,12.40
2022-10-25T05:20:29.649Z,12.40
2022-10-25T05:22:58.249Z,12.40
2022-10-25T05:25:26.970Z,12.30
2022-10-25T05:27:55.702Z,12.30
2022-10-25T05:30:25.647Z,12.30
2022-10-25T05:32:54.393Z,12.30
2022-10-25T05:35:23.241Z,12.20
2022-10-25T05:37:52.125Z,12.30
2022-10-25T05:40:20.816Z,12.30
2022-10-25T05:42:49.613Z,12.30
2022-10-25T05:45:18.459Z,12.40
2022-10-25T05:47:48.297Z,12.50
2022-10-25T05:50:17.096Z,12.60
2022-10-25T05:52:46.321Z,12.70
2022-10-25T05:55:15.219Z,12.70
2022-10-25T05:57:43.779Z,12.70
2022-10-25T06:00:12.900Z,12.70
2022-10-25T06:02:41.485Z,12.70
2022-10-25T06:05:11.581Z,12.80
2022-10-25T06:07:40.294Z,12.80
2022-10-25T06:10:10.790Z,12.70
2022-10-25T06:12:39.605Z,12.80
2022-10-25T06:15:09.007Z,12.80
2022-10-25T06:17:37.666Z,12.80
2022-10-25T06:20:06.536Z,12.90
2022-10-25T06:22:36.444Z,12.90
2022-10-25T06:25:05.340Z,12.90
2022-10-25T06:27:33.928Z,12.20
2022-10-25T06:30:02.552Z,12.80
2022-10-25T06:32:31.078Z,12.80
2022-10-25T06:34:59.855Z,12.70
2022-10-25T06:37:28.563Z,12.70
2022-10-25T06:39:58.549Z,12.70
2022-10-25T06:42:27.167Z,12.70
2022-10-25T06:44:55.836Z,12.80
2022-10-25T06:47:24.496Z,12.80
2022-10-25T06:49:53.142Z,12.90
2022-10-25T06:52:21.792Z,13.00
2022-10-25T06:54:50.391Z,13.00
2022-10-25T06:57:20.338Z,13.20
2022-10-25T06:59:49.041Z,13.20
2022-10-25T07:02:17.825Z,13.30
2022-10-25T07:04:46.617Z,13.60
2022-10-25T07:07:16.009Z,13.60
2022-10-25T07:09:44.587Z,13.80
2022-10-25T07:12:13.288Z,14.00
2022-10-25T07:14:43.189Z,14.10
2022-10-25T07:17:11.923Z,14.20
2022-10-25T07:19:40.517Z,14.20
2022-10-25T07:22:09.216Z,14.20
2022-10-25T07:24:37.851Z,14.20
2022-10-25T07:27:06.671Z,14.10
2022-10-25T07:29:35.171Z,14.10
2022-10-25T07:32:05.402Z,14.10
2022-10-25T07:34:34.197Z,14.00
2022-10-25T07:37:07.098Z,13.90
2022-10-25T07:39:35.734Z,14.00
2022-10-25T07:42:04.271Z,13.90
2022-10-25T07:44:33.134Z,13.90
2022-10-25T07:47:01.704Z,14.00
2022-10-25T07:49:31.694Z,14.00
2022-10-25T07:52:00.385Z,14.10
2022-10-25T07:54:28.962Z,14.10
2022-10-25T07:56:57.641Z,14.20
2022-10-25T07:59:26.195Z,14.10
2022-10-25T08:01:54.875Z,14.10
2022-10-25T08:04:23.574Z,14.30
2022-10-25T08:06:53.550Z,14.40
2022-10-25T08:09:37.233Z,14.50
2022-10-25T08:12:06.614Z,14.60
2022-10-25T08:14:38.139Z,14.60
2022-10-25T08:17:09.750Z,14.60
2022-10-25T08:19:38.328Z,14.60
2022-10-25T08:22:08.315Z,14.80
2022-10-25T08:24:38.691Z,14.90
2022-10-25T08:27:07.380Z,15.20
2022-10-25T08:29:36.012Z,15.40
2022-10-25T08:32:04.757Z,15.60
2022-10-25T08:34:33.464Z,15.60
2022-10-25T08:37:02.127Z,15.40
2022-10-25T08:39:32.038Z,15.50
2022-10-25T08:42:01.983Z,15.50
2022-10-25T08:44:35.382Z,15.60
2022-10-25T08:47:06.937Z,15.60
2022-10-25T08:49:43.085Z,15.60
2022-10-25T08:52:18.095Z,15.40
2022-10-25T08:54:48.429Z,15.50
2022-10-25T08:57:20.943Z,15.90
2022-10-25T08:59:51.112Z,16.20
2022-10-25T09:02:26.275Z,16.30
2022-10-25T09:04:55.766Z,16.40
2022-10-25T09:07:38.447Z,16.50
2022-10-25T09:10:15.462Z,16.40
2022-10-25T09:12:47.009Z,16.30
2022-10-25T09:15:21.077Z,16.90
2022-10-25T09:17:50.756Z,16.10
2022-10-25T09:20:21.018Z,16.00
2022-10-25T09:22:50.692Z,15.90
2022-10-25T09:25:24.059Z,15.70
2022-10-25T09:27:58.957Z,15.80
2022-10-25T09:30:28.466Z,15.60
2022-10-25T09:33:01.395Z,15.60
2022-10-25T09:35:32.401Z,15.70
2022-10-25T09:38:03.141Z,15.80
2022-10-25T09:40:39.341Z,15.90
2022-10-25T09:43:17.378Z,15.80
2022-10-25T09:45:48.454Z,15.60
2022-10-25T09:48:19.417Z,15.50
2022-10-25T09:50:51.803Z,15.30
2022-10-25T09:53:23.945Z,15.20
2022-10-25T09:55:55.383Z,15.10
2022-10-25T09:58:24.690Z,15.10
2022-10-25T10:00:54.439Z,15.20
2022-10-25T10:03:24.052Z,15.20
2022-10-25T10:05:55.288Z,15.30
2022-10-25T10:08:24.537Z,15.30
2022-10-25T10:10:55.421Z,15.30
2022-10-25T10:13:29.299Z,15.30
2022-10-25T10:15:59.260Z,15.40
2022-10-25T10:18:29.605Z,15.40
2022-10-25T10:21:09.456Z,15.40
2022-10-25T10:23:45.268Z,15.40
2022-10-25T10:26:19.768Z,15.30
2022-10-25T10:28:50.009Z,15.30
2022-10-25T10:31:19.603Z,15.30
2022-10-25T10:33:49.369Z,15.30
2022-10-25T10:36:22.336Z,15.30
2022-10-25T10:38:50.937Z,15.40
2022-10-25T10:41:24.644Z,15.40
2022-10-25T10:44:07.461Z,15.40
2022-10-25T10:46:36.337Z,15.30
2022-10-25T10:49:05.194Z,15.30
2022-10-25T10:51:43.918Z,15.40
2022-10-25T10:54:14.635Z,15.40
2022-10-25T10:56:44.656Z,15.40
2022-10-25T10:59:25.884Z,15.40
2022-10-25T11:01:54.638Z,15.40
2022-10-25T11:04:26.090Z,15.40
2022-10-25T11:06:55.062Z,15.30
2022-10-25T11:09:25.014Z,15.30
2022-10-25T11:12:07.654Z,15.50
2022-10-25T11:14:36.436Z,15.60
2022-10-25T11:17:08.973Z,15.80
2022-10-25T11:19:44.405Z,16.00
2022-10-25T11:22:18.659Z,16.30
2022-10-25T11:24:52.731Z,16.20
2022-10-25T11:27:33.051Z,16.30
2022-10-25T11:30:06.517Z,16.30
2022-10-25T11:32:47.661Z,16.20
2022-10-25T11:35:25.653Z,16.20
2022-10-25T11:37:57.280Z,16.30
2022-10-25T11:40:29.653Z,16.40
2022-10-25T11:43:06.165Z,16.60
2022-10-25T11:45:40.646Z,16.70
2022-10-25T11:48:25.492Z,16.60
2022-10-25T11:50:58.276Z,16.60
2022-10-25T11:53:41.752Z,16.60
2022-10-25T11:56:14.974Z,16.40
2022-10-25T11:58:50.505Z,16.30
2022-10-25T12:01:24.760Z,16.40
2022-10-25T12:04:01.300Z,16.50
2022-10-25T12:06:34.648Z,16.40
2022-10-25T12:09:08.176Z,16.40
2022-10-25T12:11:41.578Z,16.40
2022-10-25T12:14:13.792Z,16.30
2022-10-25T12:16:43.216Z,16.40
2022-10-25T12:19:16.508Z,16.40
2022-10-25T12:21:47.890Z,16.20
2022-10-25T12:24:19.474Z,16.20
2022-10-25T12:26:49.054Z,16.30
2022-10-25T12:29:21.170Z,16.60
2022-10-25T12:31:51.897Z,17.00
2022-10-25T12:34:22.371Z,17.60
2022-10-25T12:36:52.962Z,18.10
2022-10-25T12:39:24.680Z,18.50
2022-10-25T12:41:55.135Z,19.00
2022-10-25T12:44:42.281Z,19.20
2022-10-25T12:47:23.317Z,19.60
2022-10-25T12:50:01.847Z,18.90
2022-10-25T12:52:32.612Z,18.10
2022-10-25T12:55:11.615Z,17.60
2022-10-25T12:57:48.217Z,17.30
2022-10-25T13:02:56.548Z,17.40
2022-10-25T13:05:43.603Z,17.40
2022-10-25T13:08:12.864Z,17.40
2022-10-25T13:10:43.864Z,17.20
2022-10-25T13:13:18.563Z,16.90
2022-10-25T13:15:48.393Z,16.90
2022-10-25T13:18:40.060Z,17.00
2022-10-25T13:21:09.533Z,16.90
2022-10-25T13:24:05.343Z,17.00
2022-10-25T13:26:52.970Z,17.20
2022-10-25T13:29:40.331Z,17.20
2022-10-25T13:32:15.208Z,17.40
2022-10-25T13:34:45.286Z,17.50
2022-10-25T13:37:32.655Z,17.50
2022-10-25T13:40:02.134Z,17.40
2022-10-25T13:42:33.098Z,17.30
2022-10-25T13:45:07.294Z,17.20
2022-10-25T13:47:37.816Z,16.90
2022-10-25T13:52:46.742Z,16.70
2022-10-25T13:55:16.335Z,16.60
2022-10-25T13:57:53.238Z,16.60
2022-10-25T14:00:30.208Z,16.70
2022-10-25T14:03:06.692Z,16.60
2022-10-25T14:05:53.204Z,16.50
2022-10-25T14:08:25.937Z,16.50
2022-10-25T14:10:54.970Z,16.40
2022-10-25T14:13:25.703Z,16.30
2022-10-25T14:15:57.584Z,16.40
2022-10-25T14:18:26.937Z,16.30
2022-10-25T14:20:57.141Z,16.30
2022-10-25T14:23:29.969Z,16.30
2022-10-25T14:26:00.025Z,16.10
2022-10-25T14:28:29.768Z,16.00
2022-10-25T14:30:59.560Z,15.80
2022-10-25T14:33:29.828Z,15.70
2022-10-25T14:35:59.788Z,15.70
2022-10-25T14:38:29.797Z,15.60
2022-10-25T14:40:59.408Z,15.50
2022-10-25T14:43:30.034Z,15.50
2022-10-25T14:46:03.704Z,15.50
2022-10-25T14:48:32.777Z,15.50
2022-10-25T14:51:05.025Z,15.40
2022-10-25T14:53:35.134Z,15.30
2022-10-25T14:56:05.028Z,15.40
2022-10-25T14:58:40.135Z,15.20
2022-10-25T15:01:10.264Z,15.10
2022-10-25T15:03:42.211Z,15.00
2022-10-25T15:06:10.929Z,14.80
2022-10-25T15:08:41.559Z,14.80
2022-10-25T15:11:14.566Z,14.70
2022-10-25T15:13:44.556Z,14.60
2022-10-25T15:16:31.455Z,14.60
2022-10-25T15:19:08.360Z,14.60
2022-10-25T15:21:40.442Z,14.60
2022-10-25T15:24:13.800Z,14.50
2022-10-25T15:26:52.370Z,14.50
2022-10-25T15:29:45.933Z,14.50
2022-10-25T15:32:17.164Z,14.30
2022-10-25T15:34:47.343Z,14.30
2022-10-25T15:37:17.387Z,14.30
2022-10-25T15:39:48.257Z,14.30
2022-10-25T15:42:17.166Z,14.30
2022-10-25T15:44:46.042Z,14.20
2022-10-25T15:47:27.242Z,14.20
2022-10-25T15:49:56.217Z,14.00
2022-10-25T15:52:24.894Z,14.00
2022-10-25T15:54:54.855Z,14.00
2022-10-25T15:57:23.639Z,14.00
2022-10-25T15:59:52.172Z,13.90
2022-10-25T16:02:22.259Z,13.90
2022-10-25T16:04:51.107Z,14.00
2022-10-25T16:07:19.700Z,14.00
2022-10-25T16:09:48.392Z,14.00
2022-10-25T16:12:20.847Z,13.90
2022-10-25T16:14:50.561Z,13.90
2022-10-25T16:17:19.207Z,13.90
2022-10-25T16:19:47.801Z,13.90
2022-10-25T16:22:16.557Z,13.90
2022-10-25T16:24:45.123Z,13.90
2022-10-25T16:27:13.913Z,13.90
2022-10-25T16:29:44.173Z,13.90
2022-10-25T16:32:12.854Z,13.90
2022-10-25T16:34:46.324Z,13.90
2022-10-25T16:37:15.084Z,13.80
2022-10-25T16:39:43.692Z,13.80
2022-10-25T16:42:28.700Z,13.80
2022-10-25T16:44:59.437Z,13.90
2022-10-25T16:47:28.369Z,13.80
2022-10-25T16:49:57.027Z,13.90
2022-10-25T16:52:25.776Z,13.80
2022-10-25T16:54:54.567Z,13.90
2022-10-25T16:57:23.134Z,13.90
2022-10-25T16:59:51.675Z,13.90
2022-10-25T17:02:22.920Z,13.90
2022-10-25T17:04:51.886Z,13.90
2022-10-25T17:07:20.768Z,13.90
2022-10-25T17:09:49.372Z,14.00
2022-10-25T17:12:18.018Z,14.00
2022-10-25T17:14:46.677Z,14.00
2022-10-25T17:17:15.343Z,14.10
2022-10-25T17:19:45.435Z,14.00
2022-10-25T17:22:14.060Z,14.00
2022-10-25T17:24:42.662Z,14.00
2022-10-25T17:27:11.262Z,13.90
2022-10-25T17:29:39.821Z,14.00
2022-10-25T17:32:08.880Z,14.00
2022-10-25T17:34:37.485Z,14.00
2022-10-25T17:37:07.429Z,13.90
2022-10-25T17:39:36.087Z,13.90
2022-10-25T17:42:05.022Z,13.80
2022-10-25T17:44:33.829Z,13.80
2022-10-25T17:47:03.221Z,13.90
2022-10-25T17:49:32.039Z,13.90
2022-10-25T17:52:00.691Z,13.80
2022-10-25T17:54:31.644Z,13.80
2022-10-25T17:57:01.289Z,13.80
2022-10-25T17:59:30.425Z,13.80
2022-10-25T18:01:59.413Z,13.70
2022-10-25T18:04:28.185Z,13.70
2022-10-25T18:06:56.809Z,13.60
2022-10-25T18:09:25.483Z,13.70
2022-10-25T18:11:55.419Z,13.60
2022-10-25T18:14:24.167Z,13.60
2022-10-25T18:16:52.757Z,13.70
2022-10-25T18:19:21.411Z,13.60
2022-10-25T18:21:50.048Z,13.70
2022-10-25T18:24:18.671Z,13.60
2022-10-25T18:26:47.289Z,13.60
2022-10-25T18:29:17.233Z,13.60
2022-10-25T18:31:45.801Z,13.60
2022-10-25T18:34:14.365Z,13.60
2022-10-25T18:36:43.010Z,13.70
2022-10-25T18:39:11.647Z,13.60
2022-10-25T18:41:41.060Z,13.60
2022-10-25T18:44:14.349Z,13.60
2022-10-25T18:46:45.605Z,13.50
2022-10-25T18:49:14.902Z,13.50
2022-10-25T18:51:43.904Z,13.50
2022-10-25T18:54:12.662Z,13.50
2022-10-25T18:56:41.363Z,13.50
2022-10-25T18:59:10.620Z,13.40
2022-10-25T19:01:39.362Z,13.50
2022-10-25T19:04:09.436Z,13.40
2022-10-25T19:06:38.059Z,13.30
2022-10-25T19:09:06.864Z,13.30
2022-10-25T19:11:35.391Z,13.20
2022-10-25T19:14:05.248Z,12.90
2022-10-25T19:16:35.950Z,13.20
2022-10-25T19:19:07.160Z,13.20
2022-10-25T19:21:37.274Z,13.10
2022-10-25T19:24:06.101Z,13.10
2022-10-25T19:26:34.732Z,13.10
2022-10-25T19:29:03.225Z,13.10
2022-10-25T19:31:32.008Z,13.10
2022-10-25T19:34:03.053Z,13.10
2022-10-25T19:36:32.222Z,13.10
2022-10-25T19:39:02.285Z,13.00
2022-10-25T19:41:31.288Z,13.10
2022-10-25T19:44:00.018Z,13.10
2022-10-25T19:46:28.731Z,13.10
2022-10-25T19:49:00.343Z,13.00
2022-10-25T19:51:29.083Z,13.00
2022-10-25T19:53:57.820Z,13.10
2022-10-25T19:56:27.721Z,13.00
2022-10-25T19:58:56.757Z,12.90
2022-10-25T20:01:27.458Z,12.90
2022-10-25T20:03:57.498Z,13.00
2022-10-25T20:06:27.005Z,13.00
2022-10-25T20:08:56.643Z,13.00
2022-10-25T20:11:25.839Z,13.00
2022-10-25T20:13:56.208Z,13.00
2022-10-25T20:16:25.205Z,13.00
2022-10-25T20:18:53.972Z,12.90
2022-10-25T20:21:24.011Z,13.00
2022-10-25T20:23:54.922Z,12.80
2022-10-25T20:26:24.468Z,12.80
2022-10-25T20:28:53.435Z,12.80
2022-10-25T20:31:24.131Z,12.80
2022-10-25T20:33:53.373Z,12.90
2022-10-25T20:36:22.294Z,12.80
2022-10-25T20:38:51.358Z,12.80
2022-10-25T20:41:20.725Z,12.80
2022-10-25T20:43:50.281Z,12.80
2022-10-25T20:46:19.161Z,12.80
2022-10-25T20:48:49.043Z,12.80
2022-10-25T20:51:18.027Z,12.80
2022-10-25T20:53:48.681Z,12.80
2022-10-25T20:56:18.104Z,12.80
2022-10-25T20:58:47.005Z,12.80
2022-10-25T21:01:15.897Z,12.70
2022-10-25T21:03:44.586Z,12.70
2022-10-25T21:06:14.660Z,12.70
2022-10-25T21:08:43.394Z,12.70
2022-10-25T21:11:13.440Z,12.60
2022-10-25T21:13:42.328Z,12.70
2022-10-25T21:16:11.583Z,12.60
2022-10-25T21:18:40.478Z,12.60
2022-10-25T21:21:09.798Z,12.30
2022-10-25T21:23:39.695Z,12.70
2022-10-25T21:26:10.068Z,12.70
2022-10-25T21:28:39.503Z,11.30
2022-10-25T21:31:09.267Z,12.60
2022-10-25T21:33:38.489Z,12.60
2022-10-25T21:36:07.648Z,12.60
2022-10-25T21:38:36.327Z,12.60
2022-10-25T21:41:11.047Z,12.70
2022-10-25T21:43:42.575Z,12.60
2022-10-25T21:46:11.666Z,12.60
2022-10-25T21:48:40.406Z,12.50
2022-10-25T21:51:09.142Z,12.50
2022-10-25T21:53:37.875Z,12.50
2022-10-25T21:56:07.466Z,12.50
2022-10-25T21:58:37.796Z,12.50
2022-10-25T22:01:11.235Z,12.40
2022-10-25T22:03:40.107Z,12.40
2022-10-25T22:06:09.134Z,12.40
2022-10-25T22:08:37.828Z,12.30
2022-10-25T22:11:07.632Z,12.30
2022-10-25T22:13:37.613Z,12.30
2022-10-25T22:16:08.351Z,12.20
2022-10-25T22:18:37.348Z,12.20
2022-10-25T22:21:06.779Z,12.10
2022-10-25T22:23:36.008Z,12.10
2022-10-25T22:26:05.727Z,12.10
2022-10-25T22:28:36.838Z,12.10
2022-10-25T22:31:10.718Z,12.00
2022-10-25T22:33:39.722Z,11.90
2022-10-25T22:36:09.387Z,11.80
2022-10-25T22:38:38.657Z,11.80
2022-10-25T22:41:08.119Z,11.80
2022-10-25T22:43:37.298Z,11.70
2022-10-25T22:46:06.960Z,11.60
2022-10-25T22:48:37.598Z,11.50
2022-10-25T22:51:06.771Z,11.40
2022-10-25T22:53:35.957Z,11.30
2022-10-25T22:56:06.020Z,11.20
2022-10-25T22:58:35.518Z,11.10
2022-10-25T23:03:33.976Z,11.00
2022-10-25T23:06:04.945Z,11.00
2022-10-25T23:08:33.916Z,10.90
2022-10-25T23:11:03.447Z,10.70
2022-10-25T23:13:32.476Z,10.70
2022-10-25T23:16:01.363Z,10.60
2022-10-25T23:18:30.371Z,10.60
2022-10-25T23:20:59.560Z,10.60
2022-10-25T23:23:30.492Z,10.50
2022-10-25T23:26:00.450Z,10.40
2022-10-25T23:28:31.379Z,10.40
2022-10-25T23:31:04.627Z,10.50
2022-10-25T23:33:33.601Z,10.50
2022-10-25T23:36:03.517Z,10.50
2022-10-25T23:38:33.556Z,10.60
2022-10-25T23:41:02.612Z,10.60
2022-10-25T23:43:31.474Z,10.70
2022-10-25T23:46:00.093Z,10.70
2022-10-25T23:48:28.697Z,10.70
2022-10-25T23:50:58.542Z,10.70
2022-10-25T23:53:27.379Z,10.70
2022-10-25T23:55:57.567Z,10.60
2022-10-25T23:58:26.665Z,10.60
